createdAt,value
2022-10-09T00:01:32.792Z,9.98
2022-10-09T00:04:02.015Z,9.97
2022-10-09T00:06:35.856Z,9.97
2022-10-09T00:09:05.129Z,9.97
2022-10-09T00:11:34.458Z,9.98
2022-10-09T00:14:03.592Z,9.98
2022-10-09T00:16:32.633Z,9.97
2022-10-09T00:19:01.923Z,9.94
2022-10-09T00:21:34.615Z,9.91
2022-10-09T00:24:04.674Z,9.87
2022-10-09T00:26:33.628Z,9.83
2022-10-09T00:29:02.526Z,9.78
2022-10-09T00:31:30.950Z,9.73
2022-10-09T00:33:59.367Z,9.69
2022-10-09T00:36:28.135Z,9.66
2022-10-09T00:38:57.197Z,9.62
2022-10-09T00:41:29.493Z,9.59
2022-10-09T00:44:01.962Z,9.55
2022-10-09T00:46:48.707Z,9.52
2022-10-09T00:49:31.792Z,9.48
2022-10-09T00:52:07.526Z,9.44
2022-10-09T00:54:38.579Z,9.41
2022-10-09T00:57:08.795Z,9.38
2022-10-09T00:59:37.919Z,9.35
2022-10-09T01:02:07.010Z,9.31
2022-10-09T01:04:35.458Z,9.27
2022-10-09T01:07:15.446Z,9.23
2022-10-09T01:09:54.450Z,9.19
2022-10-09T01:12:50.939Z,9.14
2022-10-09T01:15:54.598Z,9.10
2022-10-09T01:18:44.041Z,9.07
2022-10-09T01:21:21.772Z,9.04
2022-10-09T01:24:22.182Z,9.03
2022-10-09T01:27:08.847Z,9.02
2022-10-09T01:29:50.271Z,9.02
2022-10-09T01:32:25.163Z,9.01
2022-10-09T01:34:54.515Z,9.01
2022-10-09T01:37:24.006Z,9.00
2022-10-09T01:39:53.655Z,8.99
2022-10-09T01:42:25.086Z,8.98
2022-10-09T01:44:53.360Z,8.96
2022-10-09T01:47:22.814Z,8.94
2022-10-09T01:50:33.847Z,8.93
2022-10-09T01:53:10.276Z,8.91
2022-10-09T01:56:02.555Z,8.91
2022-10-09T01:58:45.308Z,8.90
2022-10-09T02:01:33.410Z,8.88
2022-10-09T02:04:06.079Z,8.85
2022-10-09T02:06:36.020Z,8.84
2022-10-09T02:09:09.887Z,8.83
2022-10-09T02:11:41.113Z,8.81
2022-10-09T02:14:09.861Z,8.79
2022-10-09T02:16:45.434Z,8.78
2022-10-09T02:19:26.833Z,8.76
2022-10-09T02:22:01.867Z,8.72
2022-10-09T02:24:30.894Z,8.70
2022-10-09T02:26:59.840Z,8.67
2022-10-09T02:29:29.065Z,8.63
2022-10-09T02:31:57.278Z,8.59
2022-10-09T02:34:25.559Z,8.56
2022-10-09T02:36:53.849Z,8.52
2022-10-09T02:39:22.175Z,8.48
2022-10-09T02:41:50.500Z,8.43
2022-10-09T02:44:18.920Z,8.39
2022-10-09T02:46:47.331Z,8.35
2022-10-09T02:49:15.564Z,8.31
2022-10-09T02:51:43.834Z,8.27
2022-10-09T02:54:12.247Z,8.23
2022-10-09T02:56:40.545Z,8.18
2022-10-09T02:59:08.771Z,8.14
2022-10-09T03:01:37.059Z,8.11
2022-10-09T03:04:05.433Z,8.08
2022-10-09T03:06:34.419Z,8.05
2022-10-09T03:09:04.449Z,8.03
2022-10-09T03:11:32.681Z,8.00
2022-10-09T03:14:00.906Z,7.97
2022-10-09T03:16:29.183Z,7.94
2022-10-09T03:18:58.669Z,7.91
2022-10-09T03:21:28.279Z,7.89
2022-10-09T03:23:56.944Z,7.87
2022-10-09T03:26:27.790Z,7.83
2022-10-09T03:28:56.214Z,7.80
2022-10-09T03:31:50.497Z,7.77
2022-10-09T03:34:15.122Z,7.73
2022-10-09T03:36:43.602Z,7.70
2022-10-09T03:39:11.906Z,7.67
2022-10-09T03:41:40.180Z,7.63
2022-10-09T03:44:08.464Z,7.60
2022-10-09T03:46:36.767Z,7.56
2022-10-09T03:49:05.140Z,7.53
2022-10-09T03:51:33.478Z,7.51
2022-10-09T03:54:04.392Z,7.49
2022-10-09T03:56:32.613Z,7.47
2022-10-09T03:59:00.973Z,7.45
2022-10-09T04:01:29.321Z,7.42
2022-10-09T04:03:57.638Z,7.40
2022-10-09T04:06:25.945Z,7.38
2022-10-09T04:08:54.351Z,7.36
2022-10-09T04:11:23.244Z,7.35
2022-10-09T04:13:51.457Z,7.33
2022-10-09T04:16:19.837Z,7.30
2022-10-09T04:18:49.048Z,7.27
2022-10-09T04:21:17.316Z,7.26
2022-10-09T04:23:45.530Z,7.24
2022-10-09T04:26:14.143Z,7.23
2022-10-09T04:28:42.645Z,7.22
2022-10-09T04:31:11.063Z,7.20
2022-10-09T04:33:39.493Z,7.18
2022-10-09T04:36:07.988Z,7.16
2022-10-09T04:38:36.241Z,7.15
2022-10-09T04:41:06.563Z,7.14
2022-10-09T04:43:37.021Z,7.11
2022-10-09T04:46:07.912Z,7.08
2022-10-09T04:48:42.278Z,7.06
2022-10-09T04:51:11.564Z,7.05
2022-10-09T04:53:41.008Z,7.04
2022-10-09T04:56:13.473Z,7.03
2022-10-09T04:58:42.663Z,7.01
2022-10-09T05:01:22.198Z,7.00
2022-10-09T05:03:51.955Z,6.99
2022-10-09T05:06:22.389Z,6.98
2022-10-09T05:08:54.237Z,6.97
2022-10-09T05:11:25.597Z,6.97
2022-10-09T05:13:57.396Z,6.96
2022-10-09T05:16:29.194Z,6.95
2022-10-09T05:19:00.282Z,6.96
2022-10-09T05:21:29.487Z,6.96
2022-10-09T05:23:57.836Z,6.96
2022-10-09T05:26:27.305Z,6.97
2022-10-09T05:28:55.545Z,7.00
2022-10-09T05:31:28.248Z,7.02
2022-10-09T05:34:01.835Z,7.05
2022-10-09T05:36:30.562Z,7.09
2022-10-09T05:39:01.115Z,7.13
2022-10-09T05:41:29.860Z,7.17
2022-10-09T05:44:02.472Z,7.22
2022-10-09T05:46:31.255Z,7.26
2022-10-09T05:49:06.810Z,7.30
2022-10-09T05:51:40.068Z,7.37
2022-10-09T05:54:14.394Z,7.42
2022-10-09T05:56:44.559Z,7.48
2022-10-09T05:59:19.887Z,7.55
2022-10-09T06:01:50.905Z,7.61
2022-10-09T06:04:23.106Z,7.68
2022-10-09T06:06:51.999Z,7.73
2022-10-09T06:09:25.546Z,7.80
2022-10-09T06:11:55.195Z,7.86
2022-10-09T06:14:25.130Z,7.92
2022-10-09T06:16:53.691Z,7.99
2022-10-09T06:19:23.054Z,8.06
2022-10-09T06:21:52.105Z,8.12
2022-10-09T06:24:29.209Z,8.19
2022-10-09T06:26:58.540Z,8.26
2022-10-09T06:29:27.261Z,8.33
2022-10-09T06:31:55.804Z,8.40
2022-10-09T06:34:24.477Z,8.48
2022-10-09T06:36:53.102Z,8.56
2022-10-09T06:39:22.633Z,8.64
2022-10-09T06:41:50.818Z,8.71
2022-10-09T06:44:19.242Z,8.78
2022-10-09T06:46:50.046Z,8.87
2022-10-09T06:49:18.382Z,8.94
2022-10-09T06:51:46.812Z,9.01
2022-10-09T06:54:17.489Z,9.08
2022-10-09T06:56:45.951Z,9.14
2022-10-09T06:59:14.188Z,9.22
2022-10-09T07:01:42.479Z,9.30
2022-10-09T07:04:14.666Z,9.37
2022-10-09T07:06:46.883Z,9.43
2022-10-09T07:09:16.425Z,9.50
2022-10-09T07:11:49.249Z,9.59
2022-10-09T07:14:34.436Z,9.68
2022-10-09T07:17:03.556Z,9.77
2022-10-09T07:19:31.867Z,9.85
2022-10-09T07:22:00.096Z,9.94
2022-10-09T07:24:28.571Z,10.02
2022-10-09T07:26:57.617Z,10.10
2022-10-09T07:29:26.115Z,10.18
2022-10-09T07:32:22.562Z,10.24
2022-10-09T07:34:50.846Z,10.33
2022-10-09T07:37:19.092Z,10.40
2022-10-09T07:39:47.409Z,10.47
2022-10-09T07:42:15.626Z,10.54
2022-10-09T07:44:43.891Z,10.61
2022-10-09T07:47:12.133Z,10.68
2022-10-09T07:49:40.367Z,10.75
2022-10-09T07:52:08.637Z,10.83
2022-10-09T07:54:36.862Z,10.93
2022-10-09T07:57:05.277Z,11.00
2022-10-09T07:59:33.668Z,11.07
2022-10-09T08:02:01.995Z,11.14
2022-10-09T08:04:30.341Z,11.25
2022-10-09T08:06:59.905Z,11.33
2022-10-09T08:09:44.072Z,11.40
2022-10-09T08:12:12.728Z,11.50
2022-10-09T08:15:04.509Z,11.65
2022-10-09T08:17:32.736Z,11.75
2022-10-09T08:20:01.001Z,11.85
2022-10-09T08:22:33.546Z,11.98
2022-10-09T08:25:01.818Z,12.10
2022-10-09T08:27:29.993Z,12.19
2022-10-09T08:29:58.221Z,12.31
2022-10-09T08:32:26.498Z,12.47
2022-10-09T08:35:24.838Z,12.60
2022-10-09T08:38:25.346Z,12.77
2022-10-09T08:41:40.812Z,12.94
2022-10-09T08:44:33.397Z,13.10
2022-10-09T08:47:27.197Z,13.26
2022-10-09T08:50:00.159Z,13.48
2022-10-09T08:52:37.587Z,13.67
2022-10-09T08:55:22.681Z,13.87
2022-10-09T08:57:54.989Z,14.06
2022-10-09T09:00:28.132Z,14.21
2022-10-09T09:03:31.883Z,14.35
2022-10-09T09:06:23.769Z,14.59
2022-10-09T09:09:13.735Z,14.85
2022-10-09T09:12:00.455Z,15.09
2022-10-09T09:14:42.965Z,15.24
2022-10-09T09:17:53.820Z,15.39
2022-10-09T09:21:05.589Z,15.57
2022-10-09T09:23:42.697Z,15.87
2022-10-09T09:26:20.396Z,16.05
2022-10-09T09:28:55.592Z,16.15
2022-10-09T09:31:31.518Z,16.36
2022-10-09T09:34:09.507Z,16.59
2022-10-09T09:36:57.095Z,16.79
2022-10-09T09:42:20.775Z,17.30
2022-10-09T09:45:00.446Z,17.60
2022-10-09T09:47:44.524Z,17.68
2022-10-09T09:50:34.935Z,17.68
2022-10-09T09:53:07.165Z,17.84
2022-10-09T09:55:36.094Z,17.97
2022-10-09T09:58:15.587Z,18.10
2022-10-09T10:00:58.753Z,18.08
2022-10-09T10:03:27.952Z,18.37
2022-10-09T10:05:56.861Z,18.64
2022-10-09T10:08:30.511Z,18.92
2022-10-09T10:11:07.019Z,18.90
2022-10-09T10:13:49.058Z,18.76
2022-10-09T10:16:27.631Z,18.98
2022-10-09T10:18:58.255Z,19.33
2022-10-09T10:21:26.697Z,19.55
2022-10-09T10:24:10.060Z,19.68
2022-10-09T10:26:46.747Z,19.47
2022-10-09T10:29:34.197Z,19.12
2022-10-09T10:32:25.769Z,18.89
2022-10-09T10:35:11.990Z,18.78
2022-10-09T10:38:13.121Z,19.08
2022-10-09T10:40:58.787Z,19.57
2022-10-09T10:43:48.346Z,19.88
2022-10-09T10:46:53.063Z,20.21
2022-10-09T10:49:23.145Z,20.47
2022-10-09T10:52:19.502Z,20.56
2022-10-09T10:57:39.802Z,20.17
2022-10-09T11:00:11.501Z,19.83
2022-10-09T11:03:34.530Z,19.53
2022-10-09T11:06:45.272Z,19.49
2022-10-09T11:09:34.694Z,19.29
2022-10-09T11:12:24.607Z,18.94
2022-10-09T11:15:37.875Z,18.61
2022-10-09T11:18:40.881Z,18.47
2022-10-09T11:21:34.498Z,18.82
2022-10-09T11:24:43.385Z,19.37
2022-10-09T11:27:20.729Z,19.75
2022-10-09T11:30:11.635Z,20.11
2022-10-09T11:33:10.887Z,20.41
2022-10-09T11:35:56.322Z,20.68
2022-10-09T11:38:52.046Z,20.91
2022-10-09T11:41:20.685Z,21.22
2022-10-09T11:44:09.464Z,21.57
2022-10-09T11:47:01.771Z,21.86
2022-10-09T11:50:19.095Z,22.16
2022-10-09T11:53:09.213Z,22.67
2022-10-09T11:55:37.911Z,23.17
2022-10-09T11:58:21.836Z,23.59
2022-10-09T12:00:54.529Z,24.04
2022-10-09T12:03:34.559Z,24.38
2022-10-09T12:06:17.716Z,24.36
2022-10-09T12:09:08.376Z,24.07
2022-10-09T12:11:36.645Z,23.62
2022-10-09T12:14:08.708Z,23.23
2022-10-09T12:16:46.807Z,23.11
2022-10-09T12:19:24.213Z,23.29
2022-10-09T12:22:04.882Z,23.65
2022-10-09T12:24:46.539Z,24.11
2022-10-09T12:27:28.313Z,24.49
2022-10-09T12:30:21.709Z,24.97
2022-10-09T12:32:58.936Z,25.44
2022-10-09T12:35:39.462Z,25.75
2022-10-09T12:38:31.297Z,26.08
2022-10-09T12:41:11.639Z,26.45
2022-10-09T12:43:45.507Z,26.80
2022-10-09T12:46:13.842Z,26.98
2022-10-09T12:48:45.876Z,27.24
2022-10-09T12:51:17.675Z,27.52
2022-10-09T12:53:50.896Z,27.70
2022-10-09T12:56:33.628Z,27.92
2022-10-09T12:59:03.040Z,28.18
2022-10-09T13:01:33.012Z,28.37
2022-10-09T13:04:05.317Z,28.59
2022-10-09T13:06:52.880Z,28.85
2022-10-09T13:09:34.976Z,29.11
2022-10-09T13:12:26.741Z,29.39
2022-10-09T13:15:07.925Z,29.70
2022-10-09T13:17:41.893Z,29.91
2022-10-09T13:20:16.624Z,30.10
2022-10-09T13:23:06.522Z,30.26
2022-10-09T13:25:40.908Z,30.31
2022-10-09T13:28:20.236Z,30.46
2022-10-09T13:30:48.725Z,30.46
2022-10-09T13:33:17.495Z,30.44
2022-10-09T13:35:46.549Z,30.45
2022-10-09T13:38:17.870Z,30.43
2022-10-09T13:40:46.616Z,30.36
2022-10-09T13:43:26.038Z,30.31
2022-10-09T13:45:54.463Z,30.47
2022-10-09T13:48:23.680Z,30.65
2022-10-09T13:50:52.403Z,30.84
2022-10-09T13:53:20.778Z,31.11
2022-10-09T13:55:48.999Z,31.31
2022-10-09T13:58:17.238Z,31.46
2022-10-09T14:00:45.618Z,31.53
2022-10-09T14:03:14.093Z,31.68
2022-10-09T14:05:44.260Z,31.75
2022-10-09T14:08:12.669Z,31.94
2022-10-09T14:10:43.977Z,32.23
2022-10-09T14:13:14.550Z,32.47
2022-10-09T14:15:42.854Z,32.56
2022-10-09T14:18:11.166Z,32.51
2022-10-09T14:20:39.456Z,32.63
2022-10-09T14:23:07.789Z,32.67
2022-10-09T14:25:36.580Z,32.73
2022-10-09T14:28:05.020Z,32.91
2022-10-09T14:30:33.549Z,32.81
2022-10-09T14:33:01.854Z,32.92
2022-10-09T14:35:30.585Z,33.25
2022-10-09T14:37:59.049Z,33.62
2022-10-09T14:40:27.648Z,33.96
2022-10-09T14:42:55.894Z,34.27
2022-10-09T14:45:24.228Z,34.48
2022-10-09T14:47:52.495Z,34.48
2022-10-09T14:50:20.791Z,34.55
2022-10-09T14:52:49.322Z,34.61
2022-10-09T14:55:17.894Z,34.64
2022-10-09T14:57:46.290Z,34.67
2022-10-09T15:00:15.116Z,34.71
2022-10-09T15:05:16.556Z,34.95
2022-10-09T15:07:44.848Z,35.01
2022-10-09T15:10:14.818Z,35.07
2022-10-09T15:12:43.071Z,35.07
2022-10-09T15:15:11.408Z,35.03
2022-10-09T15:17:40.005Z,34.97
2022-10-09T15:20:08.869Z,34.94
2022-10-09T15:22:37.167Z,34.87
2022-10-09T15:25:06.025Z,34.67
2022-10-09T15:27:34.365Z,34.39
2022-10-09T15:30:03.277Z,33.94
2022-10-09T15:32:31.548Z,33.40
2022-10-09T15:34:59.856Z,32.83
2022-10-09T15:37:28.125Z,32.04
2022-10-09T15:39:56.765Z,31.11
2022-10-09T15:42:25.069Z,30.12
2022-10-09T15:44:53.337Z,29.13
2022-10-09T15:47:39.259Z,28.12
2022-10-09T15:50:10.607Z,27.21
2022-10-09T15:52:38.879Z,26.37
2022-10-09T15:55:07.900Z,25.60
2022-10-09T15:57:36.147Z,24.88
2022-10-09T16:00:05.157Z,24.20
2022-10-09T16:02:33.419Z,23.56
2022-10-09T16:05:02.985Z,22.95
2022-10-09T16:07:31.295Z,22.33
2022-10-09T16:09:59.547Z,21.80
2022-10-09T16:12:28.591Z,21.26
2022-10-09T16:14:56.846Z,20.75
2022-10-09T16:17:25.103Z,20.25
2022-10-09T16:19:53.424Z,19.77
2022-10-09T16:22:21.938Z,19.35
2022-10-09T16:24:50.232Z,18.92
2022-10-09T16:27:18.471Z,18.48
2022-10-09T16:29:46.912Z,18.12
2022-10-09T16:32:15.179Z,17.77
2022-10-09T16:34:43.538Z,17.44
2022-10-09T16:37:11.834Z,17.14
2022-10-09T16:39:40.340Z,16.82
2022-10-09T16:42:08.659Z,16.51
2022-10-09T16:44:36.965Z,16.21
2022-10-09T16:47:05.311Z,15.94
2022-10-09T16:49:33.925Z,15.67
2022-10-09T16:52:02.243Z,15.40
2022-10-09T16:54:30.606Z,15.14
2022-10-09T16:56:59.040Z,14.91
2022-10-09T16:59:27.761Z,14.71
2022-10-09T17:01:57.265Z,14.51
2022-10-09T17:04:26.322Z,14.32
2022-10-09T17:06:54.669Z,14.12
2022-10-09T17:09:23.157Z,13.93
2022-10-09T17:11:51.436Z,13.74
2022-10-09T17:14:19.780Z,13.56
2022-10-09T17:16:48.282Z,13.37
2022-10-09T17:19:16.746Z,13.18
2022-10-09T17:21:45.096Z,13.01
2022-10-09T17:24:15.226Z,12.85
2022-10-09T17:27:58.048Z,12.69
2022-10-09T17:30:26.915Z,12.50
2022-10-09T17:32:55.157Z,12.36
2022-10-09T17:35:24.185Z,12.25
2022-10-09T17:37:59.323Z,12.14
2022-10-09T17:40:45.936Z,12.01
2022-10-09T17:43:14.171Z,11.86
2022-10-09T17:45:43.137Z,11.75
2022-10-09T17:48:11.523Z,11.64
2022-10-09T17:50:39.734Z,11.53
2022-10-09T17:53:07.939Z,11.40
2022-10-09T17:55:38.595Z,11.29
2022-10-09T17:58:06.815Z,11.16
2022-10-09T18:00:38.451Z,11.04
2022-10-09T18:03:07.189Z,10.92
2022-10-09T18:05:53.399Z,10.80
2022-10-09T18:08:22.435Z,10.66
2022-10-09T18:11:00.080Z,10.52
2022-10-09T18:13:29.396Z,10.38
2022-10-09T18:15:57.919Z,10.26
2022-10-09T18:18:26.167Z,10.16
2022-10-09T18:20:54.362Z,10.05
2022-10-09T18:23:22.931Z,9.91
2022-10-09T18:25:51.256Z,9.82
2022-10-09T18:28:19.717Z,9.75
2022-10-09T18:30:48.057Z,9.69
2022-10-09T18:33:16.396Z,9.64
2022-10-09T18:35:45.106Z,9.57
2022-10-09T18:38:13.366Z,9.51
2022-10-09T18:40:45.804Z,9.46
2022-10-09T18:43:14.337Z,9.40
2022-10-09T18:45:46.525Z,9.34
2022-10-09T18:48:16.631Z,9.30
2022-10-09T18:50:45.053Z,9.25
2022-10-09T18:53:13.535Z,9.20
2022-10-09T18:55:43.832Z,9.16
2022-10-09T18:58:12.700Z,9.10
2022-10-09T19:00:43.406Z,9.06
2022-10-09T19:03:11.659Z,9.00
2022-10-09T19:05:40.116Z,8.94
2022-10-09T19:08:08.582Z,8.88
2022-10-09T19:10:37.036Z,8.84
2022-10-09T19:13:05.467Z,8.79
2022-10-09T19:15:34.019Z,8.77
2022-10-09T19:18:02.292Z,8.74
2022-10-09T19:20:31.545Z,8.71
2022-10-09T19:22:59.806Z,8.68
2022-10-09T19:25:28.216Z,8.65
2022-10-09T19:27:56.461Z,8.61
2022-10-09T19:30:24.782Z,8.57
2022-10-09T19:32:53.254Z,8.52
2022-10-09T19:35:21.622Z,8.48
2022-10-09T19:38:16.172Z,8.45
2022-10-09T19:40:46.533Z,8.40
2022-10-09T19:43:21.530Z,8.36
2022-10-09T19:46:12.894Z,8.32
2022-10-09T19:48:41.372Z,8.26
2022-10-09T19:51:15.423Z,8.20
2022-10-09T19:53:43.712Z,8.16
2022-10-09T19:56:18.391Z,8.12
2022-10-09T19:58:49.265Z,8.08
2022-10-09T20:01:21.391Z,8.05
2022-10-09T20:03:56.322Z,8.02
2022-10-09T20:06:26.102Z,7.98
2022-10-09T20:08:54.607Z,7.93
2022-10-09T20:11:23.660Z,7.86
2022-10-09T20:13:55.716Z,7.81
2022-10-09T20:16:32.067Z,7.75
2022-10-09T20:19:02.552Z,7.71
2022-10-09T20:21:33.742Z,7.69
2022-10-09T20:24:02.550Z,7.67
2022-10-09T20:27:10.405Z,7.64
2022-10-09T20:29:39.455Z,7.61
2022-10-09T20:32:08.019Z,7.59
2022-10-09T20:34:36.365Z,7.59
2022-10-09T20:37:04.671Z,7.59
2022-10-09T20:42:27.311Z,7.55
2022-10-09T20:44:55.636Z,7.52
2022-10-09T20:47:50.283Z,7.48
2022-10-09T20:50:18.683Z,7.43
2022-10-09T20:52:47.055Z,7.39
2022-10-09T20:55:15.346Z,7.35
2022-10-09T20:57:43.614Z,7.30
2022-10-09T21:00:12.656Z,7.26
2022-10-09T21:02:40.884Z,7.21
2022-10-09T21:05:09.390Z,7.16
2022-10-09T21:07:37.891Z,7.12
2022-10-09T21:10:07.091Z,7.10
2022-10-09T21:12:35.541Z,7.08
2022-10-09T21:15:05.404Z,7.04
2022-10-09T21:17:33.798Z,7.00
2022-10-09T21:20:02.004Z,6.97
2022-10-09T21:22:30.311Z,6.94
2022-10-09T21:24:58.595Z,6.90
2022-10-09T21:27:26.814Z,6.89
2022-10-09T21:29:55.018Z,6.89
2022-10-09T21:32:23.313Z,6.90
2022-10-09T21:34:51.583Z,6.89
2022-10-09T21:37:21.848Z,6.89
2022-10-09T21:39:50.675Z,6.87
2022-10-09T21:42:18.865Z,6.86
2022-10-09T21:44:47.079Z,6.85
2022-10-09T21:47:20.774Z,6.84
2022-10-09T21:49:48.965Z,6.83
2022-10-09T21:52:18.613Z,6.83
2022-10-09T21:54:51.963Z,6.81
2022-10-09T21:57:20.244Z,6.79
2022-10-09T21:59:48.462Z,6.77
2022-10-09T22:02:16.731Z,6.74
2022-10-09T22:04:44.956Z,6.72
2022-10-09T22:07:13.131Z,6.69
2022-10-09T22:09:41.348Z,6.66
2022-10-09T22:12:09.564Z,6.63
2022-10-09T22:14:49.346Z,6.62
2022-10-09T22:17:40.102Z,6.60
2022-10-09T22:20:09.879Z,6.55
2022-10-09T22:22:38.078Z,6.53
2022-10-09T22:25:07.506Z,6.51
2022-10-09T22:27:36.468Z,6.47
2022-10-09T22:30:05.720Z,6.43
2022-10-09T22:32:34.009Z,6.40
2022-10-09T22:35:02.202Z,6.35
2022-10-09T22:37:30.513Z,6.32
2022-10-09T22:39:58.735Z,6.28
2022-10-09T22:42:26.967Z,6.25
2022-10-09T22:44:55.304Z,6.22
2022-10-09T22:47:23.563Z,6.19
2022-10-09T22:49:51.830Z,6.17
2022-10-09T22:52:20.060Z,6.14
2022-10-09T22:54:48.319Z,6.10
2022-10-09T22:57:17.230Z,6.08
2022-10-09T22:59:45.867Z,6.06
2022-10-09T23:05:09.727Z,6.04
2022-10-09T23:07:38.050Z,6.03
2022-10-09T23:10:06.519Z,6.04
2022-10-09T23:12:34.869Z,6.03
2022-10-09T23:15:03.407Z,6.03
2022-10-09T23:17:31.699Z,6.02
2022-10-09T23:20:00.047Z,6.01
2022-10-09T23:22:28.412Z,6.01
2022-10-09T23:24:56.776Z,5.99
2022-10-09T23:27:24.967Z,5.97
2022-10-09T23:33:08.792Z,5.94
2022-10-09T23:35:43.372Z,5.92
2022-10-09T23:38:11.588Z,5.91
2022-10-09T23:40:39.857Z,5.90
2022-10-09T23:43:08.054Z,5.87
2022-10-09T23:45:40.797Z,5.85
2022-10-09T23:48:09.056Z,5.82
2022-10-09T23:50:37.280Z,5.79
2022-10-09T23:53:05.974Z,5.76
2022-10-09T23:55:34.215Z,5.73
2022-10-09T23:58:02.420Z,5.70
